createdAt,value
2022-12-16T00:02:10.161Z,37.30
2022-12-16T00:07:10.047Z,38.50
2022-12-16T00:12:10.042Z,35.10
2022-12-16T00:17:09.949Z,34.80
2022-12-16T00:22:09.901Z,33.20
2022-12-16T00:27:09.834Z,32.80
2022-12-16T00:32:09.811Z,32.20
2022-12-16T00:37:09.710Z,30.00
2022-12-16T00:42:09.658Z,31.00
2022-12-16T00:47:09.592Z,29.70
2022-12-16T00:52:09.570Z,30.40
2022-12-16T00:57:09.501Z,32.80
2022-12-16T01:02:09.568Z,31.50
2022-12-16T01:07:09.383Z,30.70
2022-12-16T01:12:09.367Z,29.70
2022-12-16T01:17:09.269Z,28.20
2022-12-16T01:22:09.264Z,29.00
2022-12-16T01:27:09.173Z,29.30
2022-12-16T01:32:09.216Z,26.30
2022-12-16T01:37:09.135Z,28.20
2022-12-16T01:42:09.045Z,26.20
2022-12-16T01:47:09.068Z,29.00
2022-12-16T01:52:09.005Z,24.40
2022-12-16T01:57:08.875Z,23.70
2022-12-16T02:02:09.055Z,25.10
2022-12-16T02:07:08.762Z,26.00
2022-12-16T02:13:35.564Z,23.30
2022-12-16T02:18:20.018Z,23.80
2022-12-16T02:23:19.952Z,24.40
2022-12-16T03:47:30.420Z,19.60
2022-12-16T03:52:52.382Z,20.50
2022-12-16T03:57:30.346Z,20.60
2022-12-16T04:02:30.386Z,19.00
2022-12-16T05:15:59.939Z,16.80
2022-12-16T05:20:59.924Z,16.90
2022-12-16T05:25:59.844Z,17.80
2022-12-16T05:32:46.708Z,18.00
2022-12-16T05:37:11.180Z,17.60
2022-12-16T05:42:10.999Z,21.00
2022-12-16T05:47:11.075Z,17.20
2022-12-16T05:52:10.871Z,16.30
2022-12-16T05:57:10.809Z,17.10
2022-12-16T06:02:10.937Z,17.30
2022-12-16T06:07:10.717Z,15.40
2022-12-16T06:12:10.668Z,15.80
2022-12-16T06:17:10.638Z,16.50
2022-12-16T06:22:10.548Z,21.00
2022-12-16T06:27:13.914Z,16.40
2022-12-16T06:32:10.474Z,16.80
2022-12-16T06:37:10.438Z,18.30
2022-12-16T06:42:10.347Z,17.00
2022-12-16T06:47:10.365Z,16.90
2022-12-16T06:52:10.251Z,16.90
2022-12-16T06:57:11.099Z,18.00
2022-12-16T07:02:10.329Z,18.00
2022-12-16T07:07:10.144Z,18.30
2022-12-16T07:12:10.141Z,17.10
2022-12-16T07:17:15.235Z,18.10
2022-12-16T07:22:10.974Z,17.40
2022-12-16T07:27:09.906Z,18.40
2022-12-16T07:32:09.886Z,16.60
2022-12-16T07:37:09.820Z,17.00
2022-12-16T07:42:09.757Z,17.80
2022-12-16T07:47:09.675Z,18.30
2022-12-16T07:52:09.625Z,17.10
2022-12-16T07:57:09.603Z,18.50
2022-12-16T08:02:09.670Z,20.00
2022-12-16T08:07:09.481Z,18.10
2022-12-16T08:12:09.445Z,19.10
2022-12-16T08:17:09.423Z,17.90
2022-12-16T08:22:09.362Z,16.10
2022-12-16T08:27:09.348Z,14.70
2022-12-16T08:32:09.212Z,15.50
2022-12-16T08:37:09.205Z,17.80
2022-12-16T08:42:09.117Z,16.50
2022-12-16T08:47:09.063Z,16.70
2022-12-16T08:52:09.024Z,17.60
2022-12-16T08:57:08.984Z,17.70
2022-12-16T09:02:09.144Z,15.00
2022-12-16T09:07:08.878Z,16.60
2022-12-16T09:12:08.842Z,17.30
2022-12-16T09:17:08.876Z,18.30
2022-12-16T09:22:08.718Z,17.80
2022-12-16T09:27:08.698Z,19.60
2022-12-16T09:32:08.705Z,20.30
2022-12-16T09:37:08.575Z,19.10
2022-12-16T09:42:08.513Z,19.10
2022-12-16T09:47:08.828Z,23.20
2022-12-16T09:52:09.146Z,23.00
2022-12-16T09:57:08.360Z,24.50
2022-12-16T10:02:08.420Z,22.40
2022-12-16T10:07:08.224Z,24.30
2022-12-16T10:12:08.204Z,23.60
2022-12-16T10:17:08.161Z,23.60
2022-12-16T10:22:08.111Z,25.80
2022-12-16T10:27:08.030Z,30.70
2022-12-16T10:32:08.055Z,28.10
2022-12-16T10:37:12.353Z,27.40
2022-12-16T10:42:08.910Z,31.70
2022-12-16T10:47:07.851Z,33.50
2022-12-16T10:52:08.851Z,33.80
2022-12-16T10:57:07.735Z,34.50
2022-12-16T11:02:07.786Z,30.50
2022-12-16T11:07:07.643Z,24.40
2022-12-16T11:12:07.565Z,26.10
2022-12-16T11:17:16.367Z,29.60
2022-12-16T11:22:07.511Z,37.10
2022-12-16T11:27:07.418Z,35.10
2022-12-16T11:32:07.427Z,21.60
2022-12-16T11:37:10.409Z,23.80
2022-12-16T11:42:07.360Z,24.80
2022-12-16T11:47:07.190Z,23.80
2022-12-16T11:52:28.500Z,21.90
2022-12-16T11:57:08.193Z,23.50
2022-12-16T12:02:07.170Z,33.40
2022-12-16T12:07:07.128Z,27.40
2022-12-16T12:12:06.967Z,25.50
2022-12-16T12:17:06.883Z,25.60
2022-12-16T12:22:06.898Z,26.00
2022-12-16T12:27:06.831Z,22.40
2022-12-16T12:32:06.716Z,27.50
2022-12-16T12:37:06.721Z,25.40
2022-12-16T12:42:06.752Z,24.90
2022-12-16T12:47:06.641Z,24.70
2022-12-16T12:52:06.530Z,28.60
2022-12-16T12:57:06.485Z,27.30
2022-12-16T13:02:06.557Z,28.50
2022-12-16T13:07:06.413Z,28.20
2022-12-16T13:12:06.336Z,29.10
2022-12-16T13:17:06.247Z,31.20
2022-12-16T13:22:06.222Z,31.80
2022-12-16T13:27:06.243Z,35.10
2022-12-16T13:32:06.229Z,35.30
2022-12-16T13:37:06.109Z,31.10
2022-12-16T13:42:06.007Z,26.50
2022-12-16T13:47:06.022Z,26.80
2022-12-16T13:52:05.901Z,25.60
2022-12-16T13:57:05.870Z,27.20
2022-12-16T14:02:05.911Z,28.80
2022-12-16T14:07:05.734Z,33.00
2022-12-16T14:12:06.704Z,25.90
2022-12-16T14:17:05.852Z,27.00
2022-12-16T14:22:05.600Z,28.40
2022-12-16T14:27:05.565Z,27.40
2022-12-16T14:32:05.694Z,29.70
2022-12-16T14:37:05.547Z,31.60
2022-12-16T14:42:05.468Z,31.90
2022-12-16T14:47:05.369Z,33.90
2022-12-16T14:52:05.379Z,41.40
2022-12-16T14:57:06.254Z,38.60
2022-12-16T15:02:05.471Z,38.20
2022-12-16T15:07:05.102Z,39.40
2022-12-16T15:12:05.144Z,38.90
2022-12-16T15:17:05.076Z,38.60
2022-12-16T15:22:04.994Z,40.60
2022-12-16T15:27:04.885Z,41.90
2022-12-16T15:32:04.904Z,40.70
2022-12-16T15:37:04.797Z,40.90
2022-12-16T15:42:04.734Z,40.70
2022-12-16T15:47:04.694Z,48.10
2022-12-16T15:52:04.647Z,46.90
2022-12-16T15:57:04.616Z,49.40
2022-12-16T16:02:05.342Z,52.40
2022-12-16T16:07:04.483Z,54.70
2022-12-16T16:12:04.399Z,63.40
2022-12-16T16:17:04.444Z,51.40
2022-12-16T16:22:04.316Z,56.40
2022-12-16T16:27:04.319Z,62.20
2022-12-16T16:32:04.760Z,67.80
2022-12-16T16:37:04.162Z,80.70
2022-12-16T16:42:04.183Z,79.60
2022-12-16T16:47:04.116Z,73.60
2022-12-16T16:52:04.043Z,75.10
2022-12-16T16:57:04.978Z,77.00
2022-12-16T17:02:04.090Z,72.40
2022-12-16T17:07:03.861Z,76.50
2022-12-16T17:12:03.878Z,80.70
2022-12-16T17:17:03.813Z,81.30
2022-12-16T17:22:03.879Z,79.00
2022-12-16T17:27:03.819Z,94.40
2022-12-16T17:32:03.751Z,97.10
2022-12-16T17:37:03.725Z,94.90
2022-12-16T17:42:03.641Z,88.10
2022-12-16T17:47:03.637Z,160.70
2022-12-16T17:52:03.487Z,101.10
2022-12-16T17:57:03.407Z,130.10
2022-12-16T18:02:03.542Z,143.30
2022-12-16T18:07:03.382Z,111.20
2022-12-16T18:12:03.348Z,101.50
2022-12-16T18:17:03.247Z,95.10
2022-12-16T18:22:03.199Z,97.50
2022-12-16T18:27:03.165Z,83.30
2022-12-16T18:32:03.175Z,97.10
2022-12-16T18:37:02.947Z,88.70
2022-12-16T18:42:02.904Z,96.10
2022-12-16T18:47:02.850Z,89.70
2022-12-16T18:52:02.842Z,112.90
2022-12-16T18:57:02.725Z,88.00
2022-12-16T19:02:02.778Z,91.20
2022-12-16T19:07:02.683Z,91.30
2022-12-16T19:12:02.563Z,110.20
2022-12-16T19:17:02.472Z,105.60
2022-12-16T19:22:02.421Z,101.40
2022-12-16T19:27:02.381Z,97.60
2022-12-16T19:32:02.370Z,93.30
2022-12-16T19:37:02.374Z,98.10
2022-12-16T19:42:02.199Z,101.30
2022-12-16T19:47:02.209Z,78.80
2022-12-16T19:52:04.152Z,87.60
2022-12-16T19:57:02.030Z,84.00
2022-12-16T20:02:02.337Z,80.20
2022-12-16T20:07:01.939Z,102.20
2022-12-16T20:12:01.903Z,86.90
2022-12-16T20:17:01.835Z,88.20
2022-12-16T20:27:02.735Z,108.90
2022-12-16T20:32:01.789Z,79.90
2022-12-16T20:37:01.647Z,95.20
2022-12-16T20:42:01.700Z,96.90
2022-12-16T20:47:03.623Z,188.00
2022-12-16T20:52:01.436Z,88.00
2022-12-16T20:57:01.405Z,75.50
2022-12-16T21:02:22.801Z,86.80
2022-12-16T21:07:02.319Z,85.80
2022-12-16T21:12:01.228Z,82.80
2022-12-16T21:17:01.387Z,92.30
2022-12-16T21:22:01.231Z,85.90
2022-12-16T21:27:01.092Z,84.30
2022-12-16T21:32:01.044Z,77.30
2022-12-16T21:37:00.999Z,75.60
2022-12-16T21:42:00.919Z,78.80
2022-12-16T21:47:00.965Z,82.60
2022-12-16T21:52:00.839Z,73.50
2022-12-16T21:57:00.797Z,72.20
2022-12-16T22:02:00.840Z,70.40
2022-12-16T22:07:00.660Z,66.70
2022-12-16T22:12:00.644Z,67.80
2022-12-16T22:17:00.627Z,67.20
2022-12-16T22:22:00.656Z,69.40
2022-12-16T22:27:00.456Z,70.30
2022-12-16T22:32:00.403Z,78.90
2022-12-16T22:37:00.313Z,102.30
2022-12-16T22:42:00.296Z,71.90
2022-12-16T22:47:00.242Z,80.60
2022-12-16T22:52:00.428Z,66.60
2022-12-16T22:57:00.127Z,69.20
2022-12-16T23:02:00.289Z,69.40
2022-12-16T23:07:00.076Z,62.70
2022-12-16T23:11:59.985Z,62.40
2022-12-16T23:16:59.929Z,63.70
2022-12-16T23:21:59.859Z,64.50
2022-12-16T23:26:59.855Z,62.90
2022-12-16T23:31:59.767Z,56.00
2022-12-16T23:32:31.024Z,90.30
2022-12-16T23:36:59.737Z,60.90
2022-12-16T23:41:59.675Z,55.90
2022-12-16T23:46:59.684Z,51.90
2022-12-16T23:51:59.662Z,50.30
2022-12-16T23:56:59.535Z,49.70
